Mount Lawley Perth Metro, Australia
Current Conditions -  °F | °C
As of 12:30 AM on Saturday 22 Nov 2014 (Local Time) from YPPH Reporting Station
Broken Clouds Broken Clouds  
Wind Chill: 63°   Ceiling: 5300
Heat Index: 63°   Visibility: 6mi
Dew Point: 54°   Wind: 6mph
Humidity: 72%   Direction: 220°SW
Pressure: 29.88"   Gusts: NA
Location:  31.92°S, 115.87°E
Report Text: YPPH 211630Z 22005KT 9999 FEW040 BKN053 17/12 Q1012
Loading
Personal Weather Stations






























Interactive Weather Map New forecast layout! Learn more

10-Day Weather Forecast

Advertisements
Track Severe Weather on mobile